createdAt,value
2018-10-03T00:00:08.361Z,11.20
2018-10-03T00:01:08.344Z,6.50
2018-10-03T00:02:08.330Z,8.50
2018-10-03T00:03:08.343Z,6.70
2018-10-03T00:04:08.313Z,6.50
2018-10-03T00:05:08.313Z,7.90
2018-10-03T00:06:08.310Z,8.90
2018-10-03T00:07:08.276Z,7.50
2018-10-03T00:08:08.271Z,7.60
2018-10-03T00:09:08.273Z,8.20
2018-10-03T00:10:08.241Z,6.90
2018-10-03T00:11:08.240Z,9.70
2018-10-03T00:12:08.225Z,7.40
2018-10-03T00:13:08.216Z,6.50
2018-10-03T00:14:08.218Z,7.20
2018-10-03T00:15:08.189Z,7.40
2018-10-03T00:16:08.180Z,8.00
2018-10-03T00:17:08.172Z,7.20
2018-10-03T00:18:08.184Z,5.60
2018-10-03T00:19:08.145Z,7.10
2018-10-03T00:20:08.135Z,6.10
2018-10-03T00:21:08.137Z,6.80
2018-10-03T00:22:08.115Z,6.00
2018-10-03T00:23:08.122Z,6.20
2018-10-03T00:24:08.093Z,7.20
2018-10-03T00:25:08.157Z,5.80
2018-10-03T00:26:08.090Z,7.10
2018-10-03T00:27:08.115Z,6.50
2018-10-03T00:28:08.060Z,6.10
2018-10-03T00:29:08.034Z,6.70
2018-10-03T00:30:08.024Z,5.80
2018-10-03T00:31:08.032Z,5.00
2018-10-03T00:32:08.008Z,6.30
2018-10-03T00:33:07.989Z,6.00
2018-10-03T00:34:07.981Z,7.70
2018-10-03T00:35:07.973Z,5.00
2018-10-03T00:36:07.964Z,5.90
2018-10-03T00:37:07.965Z,5.70
2018-10-03T00:38:07.943Z,7.70
2018-10-03T00:39:07.926Z,6.00
2018-10-03T00:40:07.919Z,6.20
2018-10-03T00:41:07.905Z,8.70
2018-10-03T00:42:07.914Z,5.70
2018-10-03T00:43:07.887Z,6.90
2018-10-03T00:44:07.877Z,9.30
2018-10-03T00:45:07.869Z,5.60
2018-10-03T00:46:07.862Z,5.20
2018-10-03T00:47:07.838Z,7.90
2018-10-03T00:48:07.835Z,6.60
2018-10-03T00:49:07.825Z,8.70
2018-10-03T00:50:07.809Z,7.50
2018-10-03T00:51:07.809Z,5.40
2018-10-03T00:52:07.780Z,6.70
2018-10-03T00:53:07.781Z,6.20
2018-10-03T00:54:07.764Z,6.80
2018-10-03T00:55:07.757Z,7.30
2018-10-03T00:56:07.746Z,7.00
2018-10-03T00:57:07.741Z,7.50
2018-10-03T00:58:07.750Z,7.60
2018-10-03T00:59:07.709Z,8.30
2018-10-03T01:00:07.693Z,5.80
2018-10-03T01:01:07.684Z,7.40
2018-10-03T01:02:07.676Z,6.50
2018-10-03T01:03:07.668Z,8.40
2018-10-03T01:04:07.679Z,6.00
2018-10-03T01:05:07.640Z,5.90
2018-10-03T01:06:07.629Z,7.10
2018-10-03T01:07:07.622Z,5.40
2018-10-03T01:08:07.617Z,7.80
2018-10-03T01:09:07.607Z,6.50
2018-10-03T01:10:07.601Z,7.00
2018-10-03T01:11:07.578Z,4.80
2018-10-03T01:12:07.562Z,6.20
2018-10-03T01:13:07.573Z,6.30
2018-10-03T01:14:07.552Z,6.40
2018-10-03T01:15:07.548Z,6.60
2018-10-03T01:16:07.537Z,6.40
2018-10-03T01:17:07.515Z,7.70
2018-10-03T01:18:07.501Z,6.60
2018-10-03T01:19:07.487Z,8.90
2018-10-03T01:20:07.485Z,8.20
2018-10-03T01:21:07.486Z,10.30
2018-10-03T01:22:07.457Z,10.00
2018-10-03T01:23:07.465Z,12.10
2018-10-03T01:24:07.430Z,11.70
2018-10-03T01:25:07.422Z,9.70
2018-10-03T01:26:07.428Z,11.10
2018-10-03T01:27:07.406Z,10.80
2018-10-03T01:28:07.395Z,8.00
2018-10-03T01:29:07.383Z,10.60
2018-10-03T01:30:07.375Z,10.00
2018-10-03T01:31:07.376Z,9.80
2018-10-03T01:32:07.343Z,11.20
2018-10-03T01:33:07.337Z,10.20
2018-10-03T01:34:07.330Z,10.00
2018-10-03T01:35:07.317Z,10.80
2018-10-03T01:36:07.307Z,8.70
2018-10-03T01:37:07.321Z,10.80
2018-10-03T01:38:07.282Z,9.30
2018-10-03T01:39:07.292Z,11.60
2018-10-03T01:40:07.264Z,10.00
2018-10-03T01:41:07.282Z,9.50
2018-10-03T01:42:07.256Z,14.10
2018-10-03T01:43:07.232Z,11.00
2018-10-03T01:44:07.212Z,11.50
2018-10-03T01:45:07.202Z,10.80
2018-10-03T01:46:07.195Z,9.90
2018-10-03T01:47:07.207Z,10.90
2018-10-03T01:48:07.191Z,12.90
2018-10-03T01:49:07.166Z,11.80
2018-10-03T01:50:07.151Z,10.20
2018-10-03T01:51:07.137Z,11.50
2018-10-03T01:52:07.171Z,12.70
2018-10-03T01:53:07.155Z,12.00
2018-10-03T01:54:07.107Z,12.20
2018-10-03T01:55:07.104Z,9.60
2018-10-03T01:56:07.079Z,15.40
2018-10-03T01:57:07.068Z,12.00
2018-10-03T01:58:07.077Z,10.40
2018-10-03T01:59:07.051Z,13.00
2018-10-03T02:00:07.058Z,13.60
2018-10-03T02:01:07.042Z,13.90
2018-10-03T02:02:07.025Z,14.70
2018-10-03T02:03:07.007Z,12.90
2018-10-03T02:04:07.006Z,17.90
2018-10-03T02:05:07.012Z,13.30
2018-10-03T02:06:06.979Z,12.50
2018-10-03T02:07:06.964Z,13.60
2018-10-03T02:08:06.964Z,12.50
2018-10-03T02:09:06.938Z,13.80
2018-10-03T02:10:06.932Z,12.80
2018-10-03T02:11:06.934Z,15.40
2018-10-03T02:12:06.917Z,14.70
2018-10-03T02:13:06.904Z,16.00
2018-10-03T02:14:06.888Z,15.20
2018-10-03T02:15:06.875Z,19.10
2018-10-03T02:16:06.876Z,19.40
2018-10-03T02:17:06.855Z,17.40
2018-10-03T02:18:06.866Z,21.70
2018-10-03T02:19:06.834Z,18.90
2018-10-03T02:20:06.825Z,20.10
2018-10-03T02:21:06.815Z,19.10
2018-10-03T02:22:06.811Z,19.60
2018-10-03T02:23:06.802Z,20.30
2018-10-03T02:24:06.773Z,18.00
2018-10-03T02:25:06.773Z,18.80
2018-10-03T02:26:06.757Z,17.70
2018-10-03T02:27:06.760Z,18.50
2018-10-03T02:28:06.730Z,21.50
2018-10-03T02:29:06.720Z,18.10
2018-10-03T02:30:06.742Z,18.50
2018-10-03T02:31:06.713Z,19.30
2018-10-03T02:32:06.695Z,20.40
2018-10-03T02:33:06.682Z,19.50
2018-10-03T02:34:06.669Z,20.80
2018-10-03T02:35:06.663Z,19.50
2018-10-03T02:36:06.668Z,21.70
2018-10-03T02:37:06.650Z,21.50
2018-10-03T02:38:06.624Z,18.10
2018-10-03T02:39:06.622Z,19.50
2018-10-03T02:40:06.608Z,21.10
2018-10-03T02:41:06.587Z,18.90
2018-10-03T02:42:06.591Z,17.80
2018-10-03T02:43:06.571Z,19.50
2018-10-03T02:44:06.563Z,17.90
2018-10-03T02:45:06.582Z,18.40
2018-10-03T02:46:06.559Z,17.70
2018-10-03T02:47:06.526Z,15.80
2018-10-03T02:48:06.514Z,13.40
2018-10-03T02:49:06.500Z,16.80
2018-10-03T02:50:06.492Z,14.80
2018-10-03T02:51:06.499Z,17.60
2018-10-03T02:52:06.477Z,15.00
2018-10-03T02:53:06.464Z,15.10
2018-10-03T02:54:06.451Z,17.70
2018-10-03T02:55:06.437Z,13.30
2018-10-03T02:56:06.423Z,14.40
2018-10-03T02:57:06.434Z,14.80
2018-10-03T02:58:06.409Z,16.70
2018-10-03T02:59:06.410Z,15.10
2018-10-03T03:00:06.383Z,14.30
2018-10-03T03:01:06.368Z,17.40
2018-10-03T03:02:06.372Z,15.90
2018-10-03T03:03:06.354Z,17.40
2018-10-03T03:04:06.349Z,15.60
2018-10-03T03:05:06.334Z,13.60
2018-10-03T03:06:06.320Z,14.60
2018-10-03T03:07:06.313Z,12.60
2018-10-03T03:08:06.307Z,11.80
2018-10-03T03:09:06.428Z,12.70
2018-10-03T03:10:06.273Z,13.00
2018-10-03T03:11:06.267Z,13.30
2018-10-03T03:12:06.273Z,16.50
2018-10-03T03:13:06.237Z,16.70
2018-10-03T03:14:06.229Z,15.90
2018-10-03T03:15:06.221Z,14.60
2018-10-03T03:16:06.218Z,15.00
2018-10-03T03:17:06.203Z,13.90
2018-10-03T03:18:06.200Z,12.90
2018-10-03T03:19:06.215Z,12.90
2018-10-03T03:20:06.160Z,13.60
2018-10-03T03:21:06.151Z,14.30
2018-10-03T03:22:06.151Z,12.40
2018-10-03T03:23:06.134Z,11.70
2018-10-03T03:24:06.133Z,15.30
2018-10-03T03:25:06.184Z,12.10
2018-10-03T03:26:06.149Z,14.70
2018-10-03T03:27:06.100Z,16.00
2018-10-03T03:28:06.073Z,11.90
2018-10-03T03:29:06.071Z,14.10
2018-10-03T03:30:06.059Z,13.60
2018-10-03T03:31:06.043Z,12.50
2018-10-03T03:32:06.053Z,15.70
2018-10-03T03:33:06.018Z,15.70
2018-10-03T03:34:06.011Z,15.40
2018-10-03T03:35:06.003Z,16.40
2018-10-03T03:36:06.007Z,14.90
2018-10-03T03:37:06.013Z,18.70
2018-10-03T03:38:05.969Z,16.80
2018-10-03T03:39:05.956Z,15.40
2018-10-03T03:40:05.943Z,17.20
2018-10-03T03:41:05.944Z,15.60
2018-10-03T03:42:05.925Z,18.40
2018-10-03T03:43:05.920Z,19.20
2018-10-03T03:44:05.908Z,18.30
2018-10-03T03:45:05.914Z,19.40
2018-10-03T03:46:05.900Z,16.10
2018-10-03T03:47:05.871Z,18.70
2018-10-03T03:48:05.866Z,16.40
2018-10-03T03:49:05.852Z,16.20
2018-10-03T03:50:05.840Z,18.20
2018-10-03T03:51:05.826Z,21.70
2018-10-03T03:52:05.821Z,15.70
2018-10-03T03:53:05.804Z,18.60
2018-10-03T03:54:05.808Z,19.30
2018-10-03T03:55:05.806Z,18.20
2018-10-03T03:56:05.782Z,18.30
2018-10-03T03:57:05.785Z,19.00
2018-10-03T03:58:05.762Z,19.70
2018-10-03T03:59:05.737Z,18.70
2018-10-03T04:00:05.728Z,19.90
2018-10-03T04:01:05.725Z,20.10
2018-10-03T04:02:05.707Z,23.80
2018-10-03T04:03:05.706Z,19.60
2018-10-03T04:04:05.701Z,23.30
2018-10-03T04:05:05.670Z,19.70
2018-10-03T04:06:05.659Z,17.10
2018-10-03T04:07:05.652Z,15.90
2018-10-03T04:08:05.660Z,20.10
2018-10-03T04:09:05.634Z,18.60
2018-10-03T04:10:05.621Z,20.00
2018-10-03T04:11:05.606Z,19.40
2018-10-03T04:12:05.591Z,16.30
2018-10-03T04:13:05.592Z,19.30
2018-10-03T04:14:05.612Z,18.60
2018-10-03T04:15:05.563Z,20.00
2018-10-03T04:16:05.555Z,18.50
2018-10-03T04:17:05.545Z,22.30
2018-10-03T04:18:05.531Z,17.90
2018-10-03T04:19:05.537Z,17.00
2018-10-03T04:20:05.513Z,20.10
2018-10-03T04:21:05.513Z,22.60
2018-10-03T04:22:05.491Z,19.50
2018-10-03T04:23:05.473Z,18.30
2018-10-03T04:24:05.459Z,19.40
2018-10-03T04:25:05.461Z,18.20
2018-10-03T04:26:05.445Z,18.80
2018-10-03T04:27:05.453Z,15.80
2018-10-03T04:28:05.425Z,20.70
2018-10-03T04:29:05.415Z,18.60
2018-10-03T04:30:05.419Z,18.60
2018-10-03T04:31:05.385Z,17.80
2018-10-03T04:32:05.373Z,18.70
2018-10-03T04:33:05.370Z,19.90
2018-10-03T04:34:05.357Z,17.10
2018-10-03T04:35:05.341Z,21.40
2018-10-03T04:36:05.339Z,20.40
2018-10-03T04:37:05.318Z,20.20
2018-10-03T04:38:05.308Z,20.10
2018-10-03T04:39:05.300Z,18.20
2018-10-03T04:40:05.309Z,19.50
2018-10-03T04:41:05.290Z,16.30
2018-10-03T04:42:05.311Z,22.80
2018-10-03T04:43:05.251Z,17.60
2018-10-03T04:44:05.243Z,19.70
2018-10-03T04:45:05.234Z,19.00
2018-10-03T04:46:05.219Z,19.80
2018-10-03T04:47:05.215Z,20.40
2018-10-03T04:48:05.215Z,17.20
2018-10-03T04:49:05.246Z,20.90
2018-10-03T04:50:05.194Z,19.10
2018-10-03T04:51:05.172Z,19.90
2018-10-03T04:52:05.160Z,19.70
2018-10-03T04:53:05.158Z,20.00
2018-10-03T04:54:05.143Z,16.80
2018-10-03T04:55:05.119Z,17.20
2018-10-03T04:56:05.111Z,16.30
2018-10-03T04:57:05.103Z,13.20
2018-10-03T04:58:05.106Z,18.30
2018-10-03T04:59:05.085Z,19.50
2018-10-03T05:00:05.080Z,17.00
2018-10-03T05:01:05.064Z,17.10
2018-10-03T05:02:05.051Z,15.50
2018-10-03T05:03:05.067Z,13.50
2018-10-03T05:04:05.023Z,15.40
2018-10-03T05:05:05.015Z,16.80
2018-10-03T05:06:05.041Z,17.30
2018-10-03T05:07:04.991Z,17.40
2018-10-03T05:08:04.992Z,17.30
2018-10-03T05:09:04.969Z,11.30
2018-10-03T05:10:04.955Z,16.30
2018-10-03T05:11:04.953Z,11.50
2018-10-03T05:12:04.938Z,13.60
2018-10-03T05:13:04.949Z,12.90
2018-10-03T05:14:04.919Z,10.40
2018-10-03T05:15:04.915Z,15.00
2018-10-03T05:16:04.897Z,14.90
2018-10-03T05:17:04.886Z,12.30
2018-10-03T05:18:04.880Z,20.00
2018-10-03T05:19:04.867Z,12.70
2018-10-03T05:20:04.851Z,17.60
2018-10-03T05:21:04.838Z,12.70
2018-10-03T05:22:04.827Z,13.00
2018-10-03T05:23:04.865Z,11.20
2018-10-03T05:24:04.809Z,13.30
2018-10-03T05:25:04.799Z,15.80
2018-10-03T05:26:04.804Z,13.70
2018-10-03T05:27:04.773Z,11.80
2018-10-03T05:28:04.781Z,13.20
2018-10-03T05:29:04.752Z,15.90
2018-10-03T05:30:04.737Z,12.20
2018-10-03T05:31:04.735Z,15.30
2018-10-03T05:32:04.720Z,13.40
2018-10-03T05:33:04.732Z,13.10
2018-10-03T05:34:04.709Z,11.40
2018-10-03T05:35:05.466Z,11.00
2018-10-03T05:36:04.694Z,10.20
2018-10-03T05:37:04.665Z,12.30
2018-10-03T05:38:04.671Z,12.10
2018-10-03T05:39:04.638Z,16.00
2018-10-03T05:40:04.896Z,11.60
2018-10-03T05:41:04.618Z,10.20
2018-10-03T05:42:04.606Z,13.10
2018-10-03T05:43:04.614Z,11.90
2018-10-03T05:44:04.588Z,11.90
2018-10-03T05:45:04.582Z,12.70
2018-10-03T05:46:04.570Z,12.50
2018-10-03T05:47:04.551Z,13.20
2018-10-03T05:48:04.553Z,9.40
2018-10-03T05:49:04.546Z,10.80
2018-10-03T05:50:04.527Z,13.10
2018-10-03T05:51:04.518Z,13.30
2018-10-03T05:52:04.502Z,11.10
2018-10-03T05:53:04.502Z,11.00
2018-10-03T05:54:04.503Z,10.20
2018-10-03T05:55:04.478Z,12.80
2018-10-03T05:56:04.457Z,14.50
2018-10-03T05:57:04.447Z,14.60
2018-10-03T05:58:04.450Z,8.60
2018-10-03T05:59:04.443Z,12.20
2018-10-03T06:00:04.414Z,11.60
2018-10-03T06:01:04.403Z,13.10
2018-10-03T06:02:04.385Z,12.00
2018-10-03T06:03:04.388Z,7.00
2018-10-03T06:04:04.370Z,13.30
2018-10-03T06:05:04.371Z,11.00
2018-10-03T06:06:04.353Z,15.00
2018-10-03T06:07:04.346Z,12.00
2018-10-03T06:08:04.325Z,11.50
2018-10-03T06:09:04.375Z,12.30
2018-10-03T06:10:04.320Z,10.20
2018-10-03T06:11:04.287Z,18.30
2018-10-03T06:12:04.370Z,11.30
2018-10-03T06:13:04.283Z,11.50
2018-10-03T06:14:04.292Z,14.00
2018-10-03T06:15:04.323Z,10.90
2018-10-03T06:16:04.238Z,14.20
2018-10-03T06:17:04.267Z,11.10
2018-10-03T06:18:04.229Z,13.50
2018-10-03T06:19:04.202Z,11.10
2018-10-03T06:20:04.203Z,9.80
2018-10-03T06:21:04.181Z,11.60
2018-10-03T06:22:04.253Z,11.30
2018-10-03T06:23:04.231Z,10.90
2018-10-03T06:24:04.180Z,13.20
2018-10-03T06:25:04.136Z,9.60
2018-10-03T06:26:04.121Z,12.70
2018-10-03T06:27:04.120Z,16.40
2018-10-03T06:28:04.153Z,12.50
2018-10-03T06:29:04.096Z,11.80
2018-10-03T06:30:04.095Z,11.10
2018-10-03T06:31:04.075Z,14.80
2018-10-03T06:32:04.071Z,11.30
2018-10-03T06:33:04.047Z,10.70
2018-10-03T06:34:04.040Z,10.00
2018-10-03T06:35:04.061Z,12.80
2018-10-03T06:36:04.022Z,12.50
2018-10-03T06:37:04.027Z,13.60
2018-10-03T06:38:04.002Z,10.50
2018-10-03T06:39:03.982Z,15.90
2018-10-03T06:40:03.974Z,12.80
2018-10-03T06:41:03.981Z,10.10
2018-10-03T06:42:03.970Z,13.50
2018-10-03T06:43:03.943Z,11.60
2018-10-03T06:44:03.926Z,12.20
2018-10-03T06:45:03.953Z,10.50
2018-10-03T06:46:03.913Z,12.20
2018-10-03T06:47:03.900Z,11.90
2018-10-03T06:48:03.913Z,10.30
2018-10-03T06:49:03.879Z,10.80
2018-10-03T06:50:03.868Z,10.30
2018-10-03T06:51:03.859Z,9.20
2018-10-03T06:52:03.870Z,15.10
2018-10-03T06:53:03.874Z,10.60
2018-10-03T06:54:03.815Z,11.40
2018-10-03T06:55:03.812Z,14.80
2018-10-03T06:56:03.813Z,13.40
2018-10-03T06:57:03.851Z,13.80
2018-10-03T06:58:03.775Z,12.90
2018-10-03T06:59:03.798Z,11.50
2018-10-03T07:00:03.779Z,12.80
2018-10-03T07:01:03.746Z,14.30
2018-10-03T07:02:03.747Z,13.30
2018-10-03T07:03:03.717Z,10.50
2018-10-03T07:04:03.708Z,8.70
2018-10-03T07:05:03.698Z,10.50
2018-10-03T07:06:03.705Z,10.10
2018-10-03T07:07:03.693Z,9.90
2018-10-03T07:08:03.668Z,10.50
2018-10-03T07:09:03.658Z,13.80
2018-10-03T07:10:03.651Z,11.00
2018-10-03T07:11:03.637Z,12.80
2018-10-03T07:12:03.664Z,9.80
2018-10-03T07:13:03.675Z,13.70
2018-10-03T07:14:03.604Z,10.60
2018-10-03T07:15:03.586Z,11.70
2018-10-03T07:16:03.584Z,10.90
2018-10-03T07:17:03.620Z,15.70
2018-10-03T07:18:03.669Z,12.30
2018-10-03T07:19:03.549Z,9.10
2018-10-03T07:20:03.546Z,9.70
2018-10-03T07:21:03.539Z,10.00
2018-10-03T07:22:03.516Z,12.20
2018-10-03T07:23:03.518Z,10.10
2018-10-03T07:24:03.498Z,13.60
2018-10-03T07:25:03.479Z,10.50
2018-10-03T07:26:03.513Z,9.90
2018-10-03T07:27:03.497Z,12.40
2018-10-03T07:28:03.465Z,12.50
2018-10-03T07:29:03.435Z,12.40
2018-10-03T07:30:03.473Z,9.30
2018-10-03T07:31:03.438Z,10.70
2018-10-03T07:32:03.404Z,17.50
2018-10-03T07:33:03.396Z,11.30
2018-10-03T07:34:03.410Z,13.90
2018-10-03T07:35:03.392Z,14.60
2018-10-03T07:36:03.358Z,8.60
2018-10-03T07:37:03.350Z,10.60
2018-10-03T07:38:03.371Z,10.90
2018-10-03T07:39:03.350Z,11.60
2018-10-03T07:40:04.257Z,15.90
2018-10-03T07:41:03.317Z,13.20
2018-10-03T07:42:03.304Z,15.10
2018-10-03T07:43:03.278Z,14.50
2018-10-03T07:44:03.350Z,10.90
2018-10-03T07:45:03.274Z,11.80
2018-10-03T07:46:03.271Z,12.20
2018-10-03T07:47:03.237Z,11.20
2018-10-03T07:48:03.320Z,16.40
2018-10-03T07:49:03.216Z,13.00
2018-10-03T07:50:03.212Z,18.40
2018-10-03T07:51:03.197Z,11.10
2018-10-03T07:52:03.197Z,10.20
2018-10-03T07:53:03.172Z,14.00
2018-10-03T07:54:03.200Z,12.20
2018-10-03T07:55:03.179Z,12.80
2018-10-03T07:56:03.141Z,12.00
2018-10-03T07:57:03.187Z,11.80
2018-10-03T07:58:03.126Z,15.20
2018-10-03T07:59:03.193Z,11.80
2018-10-03T08:00:03.101Z,15.70
2018-10-03T08:01:03.116Z,12.20
2018-10-03T08:02:03.071Z,14.50
2018-10-03T08:03:03.067Z,13.40
2018-10-03T08:04:03.055Z,14.90
2018-10-03T08:05:03.041Z,13.30
2018-10-03T08:06:03.044Z,12.20
2018-10-03T08:07:03.045Z,11.60
2018-10-03T08:08:03.006Z,14.10
2018-10-03T08:09:02.998Z,12.30
2018-10-03T08:10:03.100Z,11.10
2018-10-03T08:11:02.998Z,11.50
2018-10-03T08:12:02.967Z,13.30
2018-10-03T08:13:02.984Z,12.40
2018-10-03T08:14:02.956Z,14.70
2018-10-03T08:15:02.925Z,10.30
2018-10-03T08:16:02.932Z,12.80
2018-10-03T08:17:02.941Z,14.90
2018-10-03T08:18:02.902Z,13.60
2018-10-03T08:19:02.897Z,11.40
2018-10-03T08:20:02.877Z,10.50
2018-10-03T08:21:02.879Z,15.30
2018-10-03T08:22:02.853Z,13.60
2018-10-03T08:23:02.844Z,9.50
2018-10-03T08:24:02.830Z,13.70
2018-10-03T08:25:02.833Z,11.40
2018-10-03T08:26:02.813Z,12.30
2018-10-03T08:27:02.793Z,16.80
2018-10-03T08:28:02.810Z,10.50
2018-10-03T08:29:02.774Z,11.20
2018-10-03T08:30:02.804Z,16.70
2018-10-03T08:31:02.769Z,13.00
2018-10-03T08:32:02.797Z,12.50
2018-10-03T08:33:02.926Z,16.80
2018-10-03T08:34:02.715Z,9.80
2018-10-03T08:35:02.732Z,10.40
2018-10-03T08:36:02.703Z,12.60
2018-10-03T08:37:02.693Z,14.90
2018-10-03T08:38:02.686Z,12.30
2018-10-03T08:39:02.677Z,11.40
2018-10-03T08:40:03.047Z,15.50
2018-10-03T08:41:02.648Z,12.70
2018-10-03T08:42:02.646Z,16.00
2018-10-03T08:43:02.643Z,13.20
2018-10-03T08:44:02.631Z,13.40
2018-10-03T08:45:02.600Z,13.30
2018-10-03T08:46:02.608Z,11.50
2018-10-03T08:47:02.576Z,13.60
2018-10-03T08:48:02.568Z,11.80
2018-10-03T08:49:02.572Z,13.30
2018-10-03T08:50:02.548Z,16.10
2018-10-03T08:51:02.540Z,8.60
2018-10-03T08:52:02.594Z,11.70
2018-10-03T08:53:02.524Z,10.40
2018-10-03T08:54:02.494Z,11.50
2018-10-03T08:55:02.490Z,10.60
2018-10-03T08:56:02.478Z,11.20
2018-10-03T08:57:02.478Z,10.20
2018-10-03T08:58:02.500Z,15.60
2018-10-03T08:59:02.442Z,7.50
2018-10-03T09:00:02.430Z,12.10
2018-10-03T09:01:02.416Z,14.00
2018-10-03T09:02:02.407Z,11.10
2018-10-03T09:03:02.416Z,11.50
2018-10-03T09:04:02.397Z,9.10
2018-10-03T09:05:02.390Z,13.00
2018-10-03T09:06:02.380Z,18.50
2018-10-03T09:07:02.357Z,10.90
2018-10-03T09:08:02.361Z,11.60
2018-10-03T09:09:02.335Z,11.60
2018-10-03T09:10:02.326Z,10.50
2018-10-03T09:11:02.313Z,11.30
2018-10-03T09:12:02.296Z,12.80
2018-10-03T09:13:02.284Z,10.90
2018-10-03T09:14:02.290Z,11.30
2018-10-03T09:15:02.267Z,15.60
2018-10-03T09:16:02.270Z,14.00
2018-10-03T09:17:02.252Z,17.00
2018-10-03T09:18:02.263Z,12.90
2018-10-03T09:19:02.232Z,10.10
2018-10-03T09:20:02.207Z,15.40
2018-10-03T09:21:02.207Z,10.60
2018-10-03T09:22:02.190Z,9.00
2018-10-03T09:23:02.187Z,14.60
2018-10-03T09:24:02.168Z,14.60
2018-10-03T09:25:02.152Z,14.20
2018-10-03T09:26:02.207Z,10.80
2018-10-03T09:27:02.143Z,11.30
2018-10-03T09:28:02.182Z,8.90
2018-10-03T09:29:02.186Z,12.10
2018-10-03T09:30:02.118Z,13.40
2018-10-03T09:31:02.090Z,9.30
2018-10-03T09:32:02.089Z,14.60
2018-10-03T09:33:02.076Z,12.10
2018-10-03T09:34:02.057Z,14.80
2018-10-03T09:35:02.050Z,13.70
2018-10-03T09:36:02.170Z,11.00
2018-10-03T09:37:02.044Z,11.50
2018-10-03T09:38:02.016Z,9.90
2018-10-03T09:39:02.027Z,11.30
2018-10-03T09:40:02.004Z,11.50
2018-10-03T09:41:01.986Z,11.30
2018-10-03T09:42:01.997Z,16.00
2018-10-03T09:43:01.961Z,12.00
2018-10-03T09:44:01.945Z,16.80
2018-10-03T09:45:01.938Z,13.50
2018-10-03T09:46:01.932Z,11.30
2018-10-03T09:47:01.956Z,9.20
2018-10-03T09:48:01.914Z,10.70
2018-10-03T09:49:01.954Z,11.80
2018-10-03T09:50:01.890Z,12.20
2018-10-03T09:51:01.873Z,13.30
2018-10-03T09:52:01.899Z,13.70
2018-10-03T09:53:01.896Z,10.30
2018-10-03T09:54:01.848Z,13.40
2018-10-03T09:55:01.858Z,12.10
2018-10-03T09:56:01.820Z,11.40
2018-10-03T09:57:01.864Z,12.30
2018-10-03T09:58:01.804Z,13.80
2018-10-03T09:59:01.791Z,16.50
2018-10-03T10:00:01.794Z,13.40
2018-10-03T10:01:01.775Z,12.10
2018-10-03T10:02:01.781Z,8.40
2018-10-03T10:03:01.760Z,7.20
2018-10-03T10:04:01.731Z,10.70
2018-10-03T10:05:01.722Z,10.10
2018-10-03T10:06:01.711Z,12.70
2018-10-03T10:07:01.752Z,8.20
2018-10-03T10:08:01.701Z,16.60
2018-10-03T10:09:01.675Z,14.20
2018-10-03T10:10:01.672Z,9.60
2018-10-03T10:11:01.716Z,10.30
2018-10-03T10:12:01.691Z,9.00
2018-10-03T10:13:01.645Z,13.30
2018-10-03T10:14:01.625Z,11.30
2018-10-03T10:15:01.633Z,9.50
2018-10-03T10:16:01.597Z,13.20
2018-10-03T10:17:01.601Z,13.70
2018-10-03T10:18:01.609Z,11.90
2018-10-03T10:19:01.573Z,12.60
2018-10-03T10:20:01.565Z,10.40
2018-10-03T10:21:01.563Z,10.80
2018-10-03T10:22:01.544Z,9.40
2018-10-03T10:23:01.538Z,12.80
2018-10-03T10:24:01.516Z,11.30
2018-10-03T10:25:01.521Z,10.00
2018-10-03T10:26:01.519Z,12.30
2018-10-03T10:27:01.480Z,10.50
2018-10-03T10:28:01.512Z,9.30
2018-10-03T10:29:01.475Z,10.80
2018-10-03T10:30:01.452Z,12.00
2018-10-03T10:31:01.459Z,6.90
2018-10-03T10:32:01.472Z,8.20
2018-10-03T10:33:01.581Z,11.50
2018-10-03T10:34:01.419Z,12.10
2018-10-03T10:35:01.390Z,10.70
2018-10-03T10:36:01.398Z,13.80
2018-10-03T10:37:01.374Z,10.50
2018-10-03T10:38:01.370Z,12.30
2018-10-03T10:39:01.354Z,10.70
2018-10-03T10:40:01.461Z,7.20
2018-10-03T10:41:01.359Z,11.20
2018-10-03T10:42:01.313Z,7.60
2018-10-03T10:43:01.304Z,10.50
2018-10-03T10:44:01.332Z,14.60
2018-10-03T10:45:01.290Z,12.20
2018-10-03T10:46:01.283Z,9.50
2018-10-03T10:47:01.253Z,9.50
2018-10-03T10:48:01.243Z,9.60
2018-10-03T10:49:01.236Z,12.80
2018-10-03T10:50:01.233Z,11.20
2018-10-03T10:51:01.254Z,10.50
2018-10-03T10:52:01.222Z,10.30
2018-10-03T10:53:01.197Z,8.10
2018-10-03T10:54:01.181Z,10.40
2018-10-03T10:55:01.163Z,10.20
2018-10-03T10:56:01.182Z,9.50
2018-10-03T10:57:01.169Z,11.70
2018-10-03T10:58:01.131Z,11.10
2018-10-03T10:59:01.117Z,8.70
2018-10-03T11:00:01.630Z,11.00
2018-10-03T11:01:01.143Z,12.50
2018-10-03T11:02:01.083Z,8.00
2018-10-03T11:03:01.087Z,7.70
2018-10-03T11:04:01.094Z,9.20
2018-10-03T11:05:01.061Z,9.10
2018-10-03T11:06:01.056Z,9.20
2018-10-03T11:07:01.031Z,13.60
2018-10-03T11:08:01.026Z,9.40
2018-10-03T11:09:01.010Z,8.30
2018-10-03T11:10:00.994Z,9.30
2018-10-03T11:11:00.997Z,12.20
2018-10-03T11:12:01.010Z,13.10
2018-10-03T11:13:00.962Z,7.60
2018-10-03T11:14:00.972Z,11.10
2018-10-03T11:15:00.955Z,8.70
2018-10-03T11:16:00.957Z,12.70
2018-10-03T11:17:00.955Z,8.20
2018-10-03T11:18:00.946Z,11.30
2018-10-03T11:19:00.905Z,9.80
2018-10-03T11:20:00.893Z,8.20
2018-10-03T11:21:00.884Z,12.50
2018-10-03T11:22:00.870Z,15.80
2018-10-03T11:23:00.854Z,10.40
2018-10-03T11:24:01.031Z,8.70
2018-10-03T11:25:00.919Z,8.90
2018-10-03T11:26:00.819Z,8.10
2018-10-03T11:27:00.805Z,10.60
2018-10-03T11:28:00.800Z,9.00
2018-10-03T11:29:00.785Z,11.40
2018-10-03T11:30:00.793Z,10.50
2018-10-03T11:31:00.760Z,9.90
2018-10-03T11:32:00.766Z,11.90
2018-10-03T11:33:00.743Z,10.10
2018-10-03T11:34:00.733Z,12.80
2018-10-03T11:35:00.718Z,7.70
2018-10-03T11:36:00.720Z,8.20
2018-10-03T11:37:00.701Z,10.40
2018-10-03T11:38:00.689Z,12.00
2018-10-03T11:39:00.671Z,10.60
2018-10-03T11:40:00.661Z,9.90
2018-10-03T11:41:00.659Z,12.50
2018-10-03T11:42:00.642Z,11.90
2018-10-03T11:43:00.628Z,9.80
2018-10-03T11:44:00.663Z,8.10
2018-10-03T11:45:00.615Z,8.90
2018-10-03T11:46:00.596Z,10.30
2018-10-03T11:47:00.652Z,7.90
2018-10-03T11:48:00.584Z,14.00
2018-10-03T11:49:00.573Z,9.90
2018-10-03T11:50:00.552Z,9.80
2018-10-03T11:51:00.546Z,9.70
2018-10-03T11:52:00.551Z,8.30
2018-10-03T11:53:00.539Z,9.60
2018-10-03T11:54:00.525Z,10.80
2018-10-03T11:55:00.497Z,11.00
2018-10-03T11:56:00.490Z,10.80
2018-10-03T11:57:00.512Z,9.90
2018-10-03T11:58:00.515Z,9.90
2018-10-03T11:59:00.469Z,7.10
2018-10-03T12:00:00.536Z,13.00
2018-10-03T12:01:00.436Z,8.70
2018-10-03T12:02:00.424Z,6.90
2018-10-03T12:03:00.640Z,8.40
2018-10-03T12:04:00.393Z,10.10
2018-10-03T12:05:00.388Z,10.60
2018-10-03T12:06:00.379Z,10.70
2018-10-03T12:07:00.368Z,8.30
2018-10-03T12:08:00.371Z,8.80
2018-10-03T12:09:00.352Z,10.90
2018-10-03T12:10:00.343Z,8.20
2018-10-03T12:11:00.337Z,8.10
2018-10-03T12:12:00.312Z,13.20
2018-10-03T12:13:00.341Z,6.30
2018-10-03T12:14:00.289Z,9.10
2018-10-03T12:15:00.291Z,11.30
2018-10-03T12:16:00.273Z,8.90
2018-10-03T12:17:00.252Z,10.60
2018-10-03T12:18:00.252Z,9.40
2018-10-03T12:19:00.254Z,5.30
2018-10-03T12:20:00.241Z,7.80
2018-10-03T12:21:00.222Z,9.90
2018-10-03T12:22:00.201Z,9.80
2018-10-03T12:23:00.203Z,9.20
2018-10-03T12:24:00.191Z,10.10
2018-10-03T12:25:05.008Z,10.90
2018-10-03T12:26:00.156Z,11.60
2018-10-03T12:27:00.148Z,9.70
2018-10-03T12:28:00.137Z,10.90
2018-10-03T12:29:00.184Z,10.70
2018-10-03T12:30:00.114Z,9.70
2018-10-03T12:31:00.098Z,9.10
2018-10-03T12:32:00.085Z,9.60
2018-10-03T12:33:00.081Z,8.20
2018-10-03T12:34:00.080Z,10.70
2018-10-03T12:35:00.054Z,8.20
2018-10-03T12:36:00.076Z,8.30
2018-10-03T12:37:00.040Z,7.70
2018-10-03T12:38:00.031Z,9.00
2018-10-03T12:39:00.029Z,9.70
2018-10-03T12:40:00.003Z,11.60
2018-10-03T12:40:59.995Z,11.10
2018-10-03T12:41:59.983Z,6.60
2018-10-03T12:42:59.985Z,11.50
2018-10-03T12:43:59.997Z,8.30
2018-10-03T12:44:59.968Z,10.70
2018-10-03T12:45:59.952Z,9.20
2018-10-03T12:46:59.975Z,12.10
2018-10-03T12:47:59.935Z,9.30
2018-10-03T12:48:59.925Z,6.90
2018-10-03T12:49:59.902Z,6.70
2018-10-03T12:50:59.892Z,7.40
2018-10-03T12:51:59.875Z,12.50
2018-10-03T12:52:59.873Z,9.40
2018-10-03T12:53:59.907Z,7.50
2018-10-03T12:54:59.835Z,14.60
2018-10-03T12:55:59.838Z,10.90
2018-10-03T12:56:59.807Z,8.30
2018-10-03T12:57:59.801Z,8.70
2018-10-03T12:58:59.824Z,10.40